Agness, OR

2:49 AM PDT on August 30, 2014 (GMT -0700)
Weather Hawk | Change Station
CLOSE
Current Station
Personal Weather Station
Location: Gold Beach, OR
Elevation: 128 ft
Nearby Weather Stations

Elev 128 ft 42.53 °N, 124.39 °W | Updated 8 seconds ago

Clear
Clear
52.3 °F
Feels Like 52.3 °F
N
0.0
Wind Variable Wind from South
Gusts 1.6 mph

Today
High -- | Low -- °F
--% Chance of Precip.
Yesterday
High -- | Low -- °F
Precip. -- in
6:39 AM 7:53 PM
Waxing Crescent, 20% visible
Pressure 30.01 in
Visibility 9.0 miles
Clouds Clear
Dew Point 52 °F
Humidity 97%
Rainfall 0.00 in
Snow Depth Not available.
UV 0 out of 12
Pollen 6.50 out of 12
Air Quality Not available.
Flu Activity Not available.
METAR KBOK 300856Z AUTO 00000KT 9SM CLR 13/13 A3000 RMK AO2 58004 T01330127 SLP160

More Conditions Fewer Conditions

Pressure 30.01 in
Visibility 9.0 miles
Clouds Clear
Dew Point 52 °F
Humidity 97%
Rainfall 0.00 in
Snow Depth Not available.
UV 0 out of 12
Pollen 6.50 out of 12
Air Quality Not available.
Flu Activity Not available.
METAR KBOK 300856Z AUTO 00000KT 9SM CLR 13/13 A3000 RMK AO2 58004 T01330127 SLP160

More Conditions Fewer Conditions

10-Day Weather Forecast

Almanac

Astronomy

Aug. 30, 2014 Rise Set
Actual Time 6:39 AM PDT 7:53 PM PDT
Civil Twilight 6:10 AM PDT 8:22 PM PDT
Nautical Twilight 5:35 AM PDT 8:57 PM PDT
Astronomical Twilight 4:58 AM PDT 9:34 PM PDT
Moon 11:39 AM PDT 10:24 PM PDT
Length of Visible Light 14h 12m
Length of Day
13h 14m
Tomorrow will be 2m 46s shorter.
Waxing Crescent, 20% of the Moon is Illuminated
Today
Waxing Crescent
Sep 2
First Quarter
Sep 8
Full
Sep 15
Last Quarter
Sep 24
New

Today's Extremes

State Highs State Lows

Community

WunderPhotos

Upload Photos

1,748,475 photos uploaded!

Nearby

Snow Depth

Station Depth Elevation
Bigelow Camp 1 in 5120 ft
Fish Lake 0 in 4665 ft
Billie Creek Divide 0 in 5300 ft
Fourmile Lake 2 in 6000 ft
Cold Springs Camp 0 in 6100 ft

Earthquake Activity

City Distance Mag. Time & Date
No recent earthquake activity has been reported nearby.
Minimum magnitude displayed is 2.5.

Coastal Water Temperatures

Place Temperature
Port Orford, OR 51.1 °F
Crescent City, CA 61.0 °F
Charleston, OR 54.0 °F

Nearby Weather Stations